sensor_id;sensor_type;location;lat;lon;timestamp;noise_LAeq;noise_LA_min;noise_LA_max;noise_LA01;noise_LA95
58251;Laerm;51449;51.676;5.812;2023-08-21T00:01:37;41.59;28.38;59.47;;
58251;Laerm;51449;51.676;5.812;2023-08-21T00:04:00;49.50;28.50;67.55;;
58251;Laerm;51449;51.676;5.812;2023-08-21T00:06:21;56.06;28.34;79.03;;
58251;Laerm;51449;51.676;5.812;2023-08-21T00:08:43;54.91;27.72;71.47;;
58251;Laerm;51449;51.676;5.812;2023-08-21T00:11:05;39.03;28.19;49.42;;
58251;Laerm;51449;51.676;5.812;2023-08-21T00:13:27;45.89;28.32;62.69;;
58251;Laerm;51449;51.676;5.812;2023-08-21T00:15:48;38.28;27.75;53.89;;
58251;Laerm;51449;51.676;5.812;2023-08-21T00:18:10;38.17;28.21;48.17;;
58251;Laerm;51449;51.676;5.812;2023-08-21T00:20:32;38.35;28.55;50.55;;
58251;Laerm;51449;51.676;5.812;2023-08-21T00:22:54;38.49;28.19;49.80;;
58251;Laerm;51449;51.676;5.812;2023-08-21T00:25:16;49.29;28.76;67.55;;
58251;Laerm;51449;51.676;5.812;2023-08-21T00:27:37;38.89;29.24;49.80;;
58251;Laerm;51449;51.676;5.812;2023-08-21T00:30:00;46.31;27.88;66.10;;
58251;Laerm;51449;51.676;5.812;2023-08-21T00:32:22;44.25;29.66;64.03;;
58251;Laerm;51449;51.676;5.812;2023-08-21T00:34:44;38.74;29.69;48.69;;
58251;Laerm;51449;51.676;5.812;2023-08-21T00:37:05;46.57;29.47;63.61;;
58251;Laerm;51449;51.676;5.812;2023-08-21T00:39:27;38.78;29.32;48.93;;
58251;Laerm;51449;51.676;5.812;2023-08-21T00:41:49;59.66;30.12;75.23;;
58251;Laerm;51449;51.676;5.812;2023-08-21T00:44:11;38.65;29.23;49.13;;
58251;Laerm;51449;51.676;5.812;2023-08-21T00:46:32;38.40;29.00;49.05;;
58251;Laerm;51449;51.676;5.812;2023-08-21T00:48:54;38.70;28.65;50.22;;
58251;Laerm;51449;51.676;5.812;2023-08-21T00:51:17;48.56;29.77;63.52;;
58251;Laerm;51449;51.676;5.812;2023-08-21T00:53:39;49.37;28.94;65.73;;
58251;Laerm;51449;51.676;5.812;2023-08-21T00:56:01;46.91;28.81;63.82;;
58251;Laerm;51449;51.676;5.812;2023-08-21T00:58:24;49.61;29.45;63.52;;
58251;Laerm;51449;51.676;5.812;2023-08-21T01:00:48;49.76;29.06;65.82;;
58251;Laerm;51449;51.676;5.812;2023-08-21T01:03:11;51.07;29.12;65.84;;
58251;Laerm;51449;51.676;5.812;2023-08-21T01:05:35;52.30;29.71;69.41;;
58251;Laerm;51449;51.676;5.812;2023-08-21T01:08:02;55.43;28.93;70.63;;
58251;Laerm;51449;51.676;5.812;2023-08-21T01:10:56;54.98;29.38;71.28;;
58251;Laerm;51449;51.676;5.812;2023-08-21T01:16:13;38.00;27.57;49.55;;
58251;Laerm;51449;51.676;5.812;2023-08-21T01:18:38;38.04;27.63;49.91;;
58251;Laerm;51449;51.676;5.812;2023-08-21T01:21:03;50.69;28.44;67.35;;
58251;Laerm;51449;51.676;5.812;2023-08-21T01:23:34;55.36;28.01;70.84;;
58251;Laerm;51449;51.676;5.812;2023-08-21T01:25:56;37.99;27.25;49.64;;
58251;Laerm;51449;51.676;5.812;2023-08-21T01:28:18;49.04;27.83;64.43;;
58251;Laerm;51449;51.676;5.812;2023-08-21T01:30:40;49.59;27.44;68.63;;
58251;Laerm;51449;51.676;5.812;2023-08-21T01:33:12;47.43;27.54;65.69;;
58251;Laerm;51449;51.676;5.812;2023-08-21T01:35:35;38.31;28.22;49.33;;
58251;Laerm;51449;51.676;5.812;2023-08-21T01:37:58;56.31;29.70;70.95;;
58251;Laerm;51449;51.676;5.812;2023-08-21T01:40:23;44.70;28.15;61.70;;
58251;Laerm;51449;51.676;5.812;2023-08-21T01:42:45;55.38;27.46;72.46;;
58251;Laerm;51449;51.676;5.812;2023-08-21T01:45:08;53.99;29.88;73.14;;
58251;Laerm;51449;51.676;5.812;2023-08-21T01:47:30;38.78;28.68;48.35;;
58251;Laerm;51449;51.676;5.812;2023-08-21T01:49:52;52.71;30.25;69.55;;
58251;Laerm;51449;51.676;5.812;2023-08-21T01:52:14;54.83;31.36;71.46;;
58251;Laerm;51449;51.676;5.812;2023-08-21T01:54:36;56.29;31.34;72.23;;
58251;Laerm;51449;51.676;5.812;2023-08-21T01:56:58;46.27;30.66;63.93;;
58251;Laerm;51449;51.676;5.812;2023-08-21T01:59:20;47.54;32.36;63.31;;
58251;Laerm;51449;51.676;5.812;2023-08-21T02:01:42;48.32;31.06;67.04;;
58251;Laerm;51449;51.676;5.812;2023-08-21T02:04:04;55.48;30.79;69.84;;
58251;Laerm;51449;51.676;5.812;2023-08-21T02:06:25;52.41;30.40;67.07;;
58251;Laerm;51449;51.676;5.812;2023-08-21T02:08:49;58.64;30.24;75.05;;
58251;Laerm;51449;51.676;5.812;2023-08-21T02:11:11;50.35;30.58;69.17;;
58251;Laerm;51449;51.676;5.812;2023-08-21T02:13:33;57.27;30.33;74.73;;
58251;Laerm;51449;51.676;5.812;2023-08-21T02:15:55;58.49;30.40;74.62;;
58251;Laerm;51449;51.676;5.812;2023-08-21T02:18:17;54.68;31.62;69.43;;
58251;Laerm;51449;51.676;5.812;2023-08-21T02:20:39;56.01;32.53;71.25;;
58251;Laerm;51449;51.676;5.812;2023-08-21T02:23:03;56.23;30.79;71.80;;
58251;Laerm;51449;51.676;5.812;2023-08-21T02:25:25;56.00;32.05;69.95;;
58251;Laerm;51449;51.676;5.812;2023-08-21T02:27:48;50.46;31.60;69.82;;
58251;Laerm;51449;51.676;5.812;2023-08-21T02:30:10;56.54;31.92;69.39;;
58251;Laerm;51449;51.676;5.812;2023-08-21T02:32:32;58.01;33.31;74.28;;
58251;Laerm;51449;51.676;5.812;2023-08-21T02:34:54;55.14;32.34;74.12;;
58251;Laerm;51449;51.676;5.812;2023-08-21T02:37:16;49.53;33.44;66.21;;
58251;Laerm;51449;51.676;5.812;2023-08-21T02:39:38;55.21;33.09;74.09;;
58251;Laerm;51449;51.676;5.812;2023-08-21T02:41:59;54.88;32.62;71.58;;
58251;Laerm;51449;51.676;5.812;2023-08-21T02:44:21;57.84;32.19;71.03;;
58251;Laerm;51449;51.676;5.812;2023-08-21T02:46:43;56.89;33.48;69.92;;
58251;Laerm;51449;51.676;5.812;2023-08-21T02:49:04;49.07;30.93;67.37;;
58251;Laerm;51449;51.676;5.812;2023-08-21T02:51:26;56.58;31.37;71.27;;
58251;Laerm;51449;51.676;5.812;2023-08-21T02:53:48;60.47;36.66;73.03;;
58251;Laerm;51449;51.676;5.812;2023-08-21T02:56:10;49.30;33.01;64.07;;
58251;Laerm;51449;51.676;5.812;2023-08-21T02:58:32;59.31;34.54;72.58;;
58251;Laerm;51449;51.676;5.812;2023-08-21T03:00:54;55.85;32.29;71.39;;
58251;Laerm;51449;51.676;5.812;2023-08-21T03:03:16;50.79;33.63;66.62;;
58251;Laerm;51449;51.676;5.812;2023-08-21T03:05:38;58.52;32.20;75.09;;
58251;Laerm;51449;51.676;5.812;2023-08-21T03:07:59;54.78;32.62;70.42;;
58251;Laerm;51449;51.676;5.812;2023-08-21T03:10:21;55.51;36.09;67.88;;
58251;Laerm;51449;51.676;5.812;2023-08-21T03:12:45;55.77;34.56;67.49;;
58251;Laerm;51449;51.676;5.812;2023-08-21T03:15:07;58.33;34.54;72.92;;
58251;Laerm;51449;51.676;5.812;2023-08-21T03:17:29;52.70;33.61;67.78;;
58251;Laerm;51449;51.676;5.812;2023-08-21T03:19:51;57.95;34.95;74.00;;
58251;Laerm;51449;51.676;5.812;2023-08-21T03:22:12;60.68;33.72;77.89;;
58251;Laerm;51449;51.676;5.812;2023-08-21T03:24:36;57.65;32.87;69.80;;
58251;Laerm;51449;51.676;5.812;2023-08-21T03:26:58;64.60;37.50;78.29;;
58251;Laerm;51449;51.676;5.812;2023-08-21T03:29:19;59.21;35.10;75.75;;
58251;Laerm;51449;51.676;5.812;2023-08-21T03:31:41;60.96;37.81;73.00;;
58251;Laerm;51449;51.676;5.812;2023-08-21T03:34:03;61.64;34.63;75.75;;
58251;Laerm;51449;51.676;5.812;2023-08-21T03:36:25;60.98;36.49;72.89;;
58251;Laerm;51449;51.676;5.812;2023-08-21T03:38:54;60.42;34.74;73.41;;
58251;Laerm;51449;51.676;5.812;2023-08-21T03:41:16;58.71;36.08;70.21;;
58251;Laerm;51449;51.676;5.812;2023-08-21T03:43:38;56.27;33.69;71.40;;
58251;Laerm;51449;51.676;5.812;2023-08-21T03:46:00;60.65;38.37;70.42;;
58251;Laerm;51449;51.676;5.812;2023-08-21T03:48:22;55.95;32.89;68.36;;
58251;Laerm;51449;51.676;5.812;2023-08-21T03:50:44;58.44;34.66;71.00;;
58251;Laerm;51449;51.676;5.812;2023-08-21T03:53:06;62.51;40.95;76.32;;
58251;Laerm;51449;51.676;5.812;2023-08-21T03:55:27;62.41;33.55;74.55;;
58251;Laerm;51449;51.676;5.812;2023-08-21T03:57:49;58.29;32.55;73.83;;
58251;Laerm;51449;51.676;5.812;2023-08-21T04:00:11;59.57;35.33;74.85;;
58251;Laerm;51449;51.676;5.812;2023-08-21T04:02:36;58.90;37.76;72.77;;
58251;Laerm;51449;51.676;5.812;2023-08-21T04:04:59;63.01;35.17;74.31;;
58251;Laerm;51449;51.676;5.812;2023-08-21T04:07:21;60.55;38.59;71.60;;
58251;Laerm;51449;51.676;5.812;2023-08-21T04:09:42;77.23;38.87;98.26;;
58251;Laerm;51449;51.676;5.812;2023-08-21T04:12:04;61.45;37.38;74.25;;
58251;Laerm;51449;51.676;5.812;2023-08-21T04:14:26;59.99;39.51;71.46;;
58251;Laerm;51449;51.676;5.812;2023-08-21T04:16:48;59.77;40.12;70.51;;
58251;Laerm;51449;51.676;5.812;2023-08-21T04:19:10;63.54;39.82;74.09;;
58251;Laerm;51449;51.676;5.812;2023-08-21T04:21:32;58.93;35.98;70.74;;
58251;Laerm;51449;51.676;5.812;2023-08-21T04:23:53;62.21;41.68;74.17;;
58251;Laerm;51449;51.676;5.812;2023-08-21T04:26:15;61.91;40.19;80.54;;
58251;Laerm;51449;51.676;5.812;2023-08-21T04:28:37;60.01;35.52;74.10;;
58251;Laerm;51449;51.676;5.812;2023-08-21T04:30:59;63.56;39.39;72.88;;
58251;Laerm;51449;51.676;5.812;2023-08-21T04:33:21;62.19;39.16;78.43;;
58251;Laerm;51449;51.676;5.812;2023-08-21T04:35:43;62.08;40.02;71.94;;
58251;Laerm;51449;51.676;5.812;2023-08-21T04:38:05;61.77;38.27;83.99;;
58251;Laerm;51449;51.676;5.812;2023-08-21T04:40:26;64.24;44.69;81.79;;
58251;Laerm;51449;51.676;5.812;2023-08-21T04:42:48;64.10;47.22;75.66;;
58251;Laerm;51449;51.676;5.812;2023-08-21T04:45:11;65.35;43.53;75.22;;
58251;Laerm;51449;51.676;5.812;2023-08-21T04:47:33;63.78;42.29;74.26;;
58251;Laerm;51449;51.676;5.812;2023-08-21T04:49:55;63.05;42.13;73.64;;
58251;Laerm;51449;51.676;5.812;2023-08-21T04:52:19;63.65;41.18;75.60;;
58251;Laerm;51449;51.676;5.812;2023-08-21T04:54:41;65.68;39.35;75.72;;
58251;Laerm;51449;51.676;5.812;2023-08-21T04:57:05;61.48;38.08;72.03;;
58251;Laerm;51449;51.676;5.812;2023-08-21T04:59:27;63.78;40.11;76.06;;
58251;Laerm;51449;51.676;5.812;2023-08-21T05:01:48;62.96;38.92;70.90;;
58251;Laerm;51449;51.676;5.812;2023-08-21T05:04:11;62.21;43.08;72.32;;
58251;Laerm;51449;51.676;5.812;2023-08-21T05:06:33;62.48;41.78;73.77;;
58251;Laerm;51449;51.676;5.812;2023-08-21T05:08:54;62.82;39.79;72.70;;
58251;Laerm;51449;51.676;5.812;2023-08-21T05:11:16;64.61;41.14;78.34;;
58251;Laerm;51449;51.676;5.812;2023-08-21T05:13:38;64.50;47.76;73.11;;
58251;Laerm;51449;51.676;5.812;2023-08-21T05:16:03;65.08;44.51;79.28;;
58251;Laerm;51449;51.676;5.812;2023-08-21T05:18:29;65.80;39.12;80.09;;
58251;Laerm;51449;51.676;5.812;2023-08-21T05:20:55;63.51;41.78;81.71;;
58251;Laerm;51449;51.676;5.812;2023-08-21T05:23:17;63.71;41.81;75.99;;
58251;Laerm;51449;51.676;5.812;2023-08-21T05:25:43;63.40;42.14;73.52;;
58251;Laerm;51449;51.676;5.812;2023-08-21T05:28:06;61.99;43.18;71.11;;
58251;Laerm;51449;51.676;5.812;2023-08-21T05:30:28;65.51;47.86;81.03;;
58251;Laerm;51449;51.676;5.812;2023-08-21T05:32:50;64.37;47.34;73.31;;
58251;Laerm;51449;51.676;5.812;2023-08-21T05:35:12;61.49;41.74;72.84;;
58251;Laerm;51449;51.676;5.812;2023-08-21T05:37:35;61.32;39.51;71.67;;
58251;Laerm;51449;51.676;5.812;2023-08-21T05:39:57;66.70;42.46;75.79;;
58251;Laerm;51449;51.676;5.812;2023-08-21T05:42:19;62.83;42.30;72.12;;
58251;Laerm;51449;51.676;5.812;2023-08-21T05:44:41;62.09;36.73;71.46;;
58251;Laerm;51449;51.676;5.812;2023-08-21T05:47:03;65.23;41.75;81.34;;
58251;Laerm;51449;51.676;5.812;2023-08-21T05:49:25;62.10;40.19;75.83;;
58251;Laerm;51449;51.676;5.812;2023-08-21T05:51:47;65.62;38.82;72.71;;
58251;Laerm;51449;51.676;5.812;2023-08-21T05:54:08;64.96;45.81;76.07;;
58251;Laerm;51449;51.676;5.812;2023-08-21T05:56:32;63.91;43.75;73.95;;
58251;Laerm;51449;51.676;5.812;2023-08-21T05:58:55;60.82;38.69;70.79;;
58251;Laerm;51449;51.676;5.812;2023-08-21T06:01:19;63.27;42.01;71.52;;
58251;Laerm;51449;51.676;5.812;2023-08-21T06:03:43;61.69;41.25;72.83;;
58251;Laerm;51449;51.676;5.812;2023-08-21T06:06:23;63.53;37.16;72.25;;
58251;Laerm;51449;51.676;5.812;2023-08-21T06:08:45;58.71;37.40;73.47;;
58251;Laerm;51449;51.676;5.812;2023-08-21T06:11:08;63.93;39.30;73.71;;
58251;Laerm;51449;51.676;5.812;2023-08-21T06:13:31;60.89;38.21;78.73;;
58251;Laerm;51449;51.676;5.812;2023-08-21T06:15:54;62.78;40.25;73.60;;
58251;Laerm;51449;51.676;5.812;2023-08-21T06:18:17;64.50;40.00;82.38;;
58251;Laerm;51449;51.676;5.812;2023-08-21T06:20:38;68.55;40.11;84.29;;
58251;Laerm;51449;51.676;5.812;2023-08-21T06:23:00;66.74;37.87;84.82;;
58251;Laerm;51449;51.676;5.812;2023-08-21T06:25:22;63.47;40.08;78.05;;
58251;Laerm;51449;51.676;5.812;2023-08-21T06:27:44;62.00;40.75;71.02;;
58251;Laerm;51449;51.676;5.812;2023-08-21T06:30:19;61.16;40.44;74.64;;
58251;Laerm;51449;51.676;5.812;2023-08-21T06:32:41;63.68;38.44;78.66;;
58251;Laerm;51449;51.676;5.812;2023-08-21T06:35:03;62.09;38.45;73.77;;
58251;Laerm;51449;51.676;5.812;2023-08-21T06:37:25;64.10;45.87;72.94;;
58251;Laerm;51449;51.676;5.812;2023-08-21T06:39:46;62.21;40.92;73.67;;
58251;Laerm;51449;51.676;5.812;2023-08-21T06:42:08;66.66;41.09;79.07;;
58251;Laerm;51449;51.676;5.812;2023-08-21T06:44:38;63.99;42.34;81.49;;
58251;Laerm;51449;51.676;5.812;2023-08-21T06:47:00;65.00;39.45;80.26;;
58251;Laerm;51449;51.676;5.812;2023-08-21T06:49:22;64.26;42.06;71.34;;
58251;Laerm;51449;51.676;5.812;2023-08-21T06:51:45;64.27;39.63;74.96;;
58251;Laerm;51449;51.676;5.812;2023-08-21T06:54:06;61.54;40.97;72.29;;
58251;Laerm;51449;51.676;5.812;2023-08-21T06:56:28;64.25;42.42;76.56;;
58251;Laerm;51449;51.676;5.812;2023-08-21T06:58:50;63.65;42.03;73.90;;
58251;Laerm;51449;51.676;5.812;2023-08-21T07:01:12;62.10;40.66;74.91;;
58251;Laerm;51449;51.676;5.812;2023-08-21T07:03:33;59.51;38.14;73.85;;
58251;Laerm;51449;51.676;5.812;2023-08-21T07:05:56;62.18;38.85;72.52;;
58251;Laerm;51449;51.676;5.812;2023-08-21T07:08:18;62.59;39.04;74.36;;
58251;Laerm;51449;51.676;5.812;2023-08-21T07:10:40;62.56;39.67;72.83;;
58251;Laerm;51449;51.676;5.812;2023-08-21T07:13:02;60.44;36.78;74.33;;
58251;Laerm;51449;51.676;5.812;2023-08-21T07:15:24;61.46;38.69;74.82;;
58251;Laerm;51449;51.676;5.812;2023-08-21T07:17:46;69.46;43.81;85.32;;
58251;Laerm;51449;51.676;5.812;2023-08-21T07:20:08;60.40;35.00;72.82;;
58251;Laerm;51449;51.676;5.812;2023-08-21T07:22:29;63.03;38.06;74.79;;
58251;Laerm;51449;51.676;5.812;2023-08-21T07:24:51;64.47;46.64;72.25;;
58251;Laerm;51449;51.676;5.812;2023-08-21T07:27:13;60.90;41.56;70.29;;
58251;Laerm;51449;51.676;5.812;2023-08-21T07:29:35;61.90;46.22;71.09;;
58251;Laerm;51449;51.676;5.812;2023-08-21T07:31:56;64.33;41.06;75.04;;
58251;Laerm;51449;51.676;5.812;2023-08-21T07:34:18;62.10;39.54;73.97;;
58251;Laerm;51449;51.676;5.812;2023-08-21T07:36:40;64.20;46.47;75.12;;
58251;Laerm;51449;51.676;5.812;2023-08-21T07:39:02;66.47;40.85;79.39;;
58251;Laerm;51449;51.676;5.812;2023-08-21T07:41:24;81.52;40.39;101.60;;
58251;Laerm;51449;51.676;5.812;2023-08-21T07:43:48;60.59;44.18;75.02;;
58251;Laerm;51449;51.676;5.812;2023-08-21T07:46:12;64.73;35.51;77.45;;
58251;Laerm;51449;51.676;5.812;2023-08-21T07:48:40;61.13;39.28;73.41;;
58251;Laerm;51449;51.676;5.812;2023-08-21T07:51:02;62.73;41.62;77.66;;
58251;Laerm;51449;51.676;5.812;2023-08-21T07:53:25;62.56;35.45;78.45;;
58251;Laerm;51449;51.676;5.812;2023-08-21T07:55:47;61.93;45.84;72.27;;
58251;Laerm;51449;51.676;5.812;2023-08-21T07:58:10;63.75;36.73;79.28;;
58251;Laerm;51449;51.676;5.812;2023-08-21T08:00:32;61.62;37.69;85.65;;
58251;Laerm;51449;51.676;5.812;2023-08-21T08:02:54;63.43;43.12;74.48;;
58251;Laerm;51449;51.676;5.812;2023-08-21T08:05:16;60.98;35.82;72.94;;
58251;Laerm;51449;51.676;5.812;2023-08-21T08:07:37;63.66;41.71;73.73;;
58251;Laerm;51449;51.676;5.812;2023-08-21T08:09:59;66.74;45.88;82.03;;
58251;Laerm;51449;51.676;5.812;2023-08-21T08:12:21;61.72;36.81;77.03;;
58251;Laerm;51449;51.676;5.812;2023-08-21T08:14:42;62.92;41.36;72.45;;
58251;Laerm;51449;51.676;5.812;2023-08-21T08:17:04;61.77;40.32;73.11;;
58251;Laerm;51449;51.676;5.812;2023-08-21T08:19:28;64.43;43.72;73.25;;
58251;Laerm;51449;51.676;5.812;2023-08-21T08:21:49;63.52;42.96;78.64;;
58251;Laerm;51449;51.676;5.812;2023-08-21T08:24:11;61.95;42.94;72.56;;
58251;Laerm;51449;51.676;5.812;2023-08-21T08:26:33;59.89;37.65;71.42;;
58251;Laerm;51449;51.676;5.812;2023-08-21T08:28:55;60.49;36.21;72.78;;
58251;Laerm;51449;51.676;5.812;2023-08-21T08:31:18;65.45;41.36;76.73;;
58251;Laerm;51449;51.676;5.812;2023-08-21T08:33:40;68.02;41.39;80.36;;
58251;Laerm;51449;51.676;5.812;2023-08-21T08:36:02;63.49;49.57;71.59;;
58251;Laerm;51449;51.676;5.812;2023-08-21T08:38:23;63.09;38.48;74.87;;
58251;Laerm;51449;51.676;5.812;2023-08-21T08:40:46;64.84;38.20;73.95;;
58251;Laerm;51449;51.676;5.812;2023-08-21T08:43:11;61.50;42.63;71.75;;
58251;Laerm;51449;51.676;5.812;2023-08-21T08:45:34;63.36;35.74;74.46;;
58251;Laerm;51449;51.676;5.812;2023-08-21T08:47:59;62.37;42.62;74.49;;
58251;Laerm;51449;51.676;5.812;2023-08-21T08:50:28;62.20;40.08;72.59;;
58251;Laerm;51449;51.676;5.812;2023-08-21T08:52:51;63.48;40.70;74.24;;
58251;Laerm;51449;51.676;5.812;2023-08-21T08:55:16;64.30;43.22;78.47;;
58251;Laerm;51449;51.676;5.812;2023-08-21T08:57:37;64.09;40.39;76.73;;
58251;Laerm;51449;51.676;5.812;2023-08-21T09:00:00;60.62;38.67;73.58;;
58251;Laerm;51449;51.676;5.812;2023-08-21T09:02:24;65.49;36.29;76.24;;
58251;Laerm;51449;51.676;5.812;2023-08-21T09:04:47;64.12;46.01;72.87;;
58251;Laerm;51449;51.676;5.812;2023-08-21T09:07:11;62.29;40.49;74.77;;
58251;Laerm;51449;51.676;5.812;2023-08-21T09:09:40;60.89;36.28;71.73;;
58251;Laerm;51449;51.676;5.812;2023-08-21T09:12:09;63.22;37.09;74.38;;
58251;Laerm;51449;51.676;5.812;2023-08-21T09:14:32;60.56;34.04;71.49;;
58251;Laerm;51449;51.676;5.812;2023-08-21T09:17:00;64.59;39.95;75.17;;
58251;Laerm;51449;51.676;5.812;2023-08-21T09:19:25;61.88;37.94;72.55;;
58251;Laerm;51449;51.676;5.812;2023-08-21T09:21:49;61.30;37.84;72.71;;
58251;Laerm;51449;51.676;5.812;2023-08-21T09:24:10;61.64;37.16;73.23;;
58251;Laerm;51449;51.676;5.812;2023-08-21T09:26:32;61.56;38.85;71.70;;
58251;Laerm;51449;51.676;5.812;2023-08-21T09:28:54;62.63;44.08;71.19;;
58251;Laerm;51449;51.676;5.812;2023-08-21T09:31:22;63.92;44.99;72.34;;
58251;Laerm;51449;51.676;5.812;2023-08-21T09:33:54;60.94;38.37;71.82;;
58251;Laerm;51449;51.676;5.812;2023-08-21T09:36:16;64.93;40.85;75.91;;
58251;Laerm;51449;51.676;5.812;2023-08-21T09:38:39;67.49;38.76;80.34;;
58251;Laerm;51449;51.676;5.812;2023-08-21T09:41:01;62.14;42.95;73.30;;
58251;Laerm;51449;51.676;5.812;2023-08-21T09:43:24;62.29;46.15;72.11;;
58251;Laerm;51449;51.676;5.812;2023-08-21T09:45:53;60.81;38.56;73.90;;
58251;Laerm;51449;51.676;5.812;2023-08-21T09:48:17;63.37;40.83;71.98;;
58251;Laerm;51449;51.676;5.812;2023-08-21T09:50:39;67.30;44.75;79.74;;
58251;Laerm;51449;51.676;5.812;2023-08-21T09:53:07;64.51;35.81;77.84;;
58251;Laerm;51449;51.676;5.812;2023-08-21T09:55:32;64.65;40.32;75.20;;
58251;Laerm;51449;51.676;5.812;2023-08-21T09:57:55;60.98;41.72;75.57;;
58251;Laerm;51449;51.676;5.812;2023-08-21T10:00:20;63.72;41.01;74.73;;
58251;Laerm;51449;51.676;5.812;2023-08-21T10:02:43;59.80;35.05;70.08;;
58251;Laerm;51449;51.676;5.812;2023-08-21T10:05:10;64.32;41.07;82.51;;
58251;Laerm;51449;51.676;5.812;2023-08-21T10:07:33;63.72;37.34;74.91;;
58251;Laerm;51449;51.676;5.812;2023-08-21T10:09:57;65.04;38.19;74.08;;
58251;Laerm;51449;51.676;5.812;2023-08-21T10:12:19;59.48;35.48;70.95;;
58251;Laerm;51449;51.676;5.812;2023-08-21T10:14:42;65.68;43.34;77.69;;
58251;Laerm;51449;51.676;5.812;2023-08-21T10:17:05;68.98;39.56;83.73;;
58251;Laerm;51449;51.676;5.812;2023-08-21T10:19:32;61.28;37.96;76.60;;
58251;Laerm;51449;51.676;5.812;2023-08-21T10:21:55;62.72;34.97;74.19;;
58251;Laerm;51449;51.676;5.812;2023-08-21T10:24:36;63.30;35.66;74.67;;
58251;Laerm;51449;51.676;5.812;2023-08-21T10:27:00;65.46;36.04;83.66;;
58251;Laerm;51449;51.676;5.812;2023-08-21T10:29:21;64.14;47.25;75.62;;
58251;Laerm;51449;51.676;5.812;2023-08-21T10:31:43;59.64;34.48;72.06;;
58251;Laerm;51449;51.676;5.812;2023-08-21T10:34:08;62.55;38.64;72.15;;
58251;Laerm;51449;51.676;5.812;2023-08-21T10:39:16;67.81;35.46;82.90;;
58251;Laerm;51449;51.676;5.812;2023-08-21T10:41:41;63.69;39.73;78.25;;
58251;Laerm;51449;51.676;5.812;2023-08-21T10:44:06;61.78;36.05;76.73;;
58251;Laerm;51449;51.676;5.812;2023-08-21T10:46:51;79.20;43.27;102.75;;
58251;Laerm;51449;51.676;5.812;2023-08-21T10:49:13;62.95;43.35;75.33;;
58251;Laerm;51449;51.676;5.812;2023-08-21T10:51:35;62.54;39.58;71.32;;
58251;Laerm;51449;51.676;5.812;2023-08-21T10:54:11;61.63;38.93;75.53;;
58251;Laerm;51449;51.676;5.812;2023-08-21T10:56:33;63.02;47.65;70.62;;
58251;Laerm;51449;51.676;5.812;2023-08-21T10:58:55;64.13;41.49;75.98;;
58251;Laerm;51449;51.676;5.812;2023-08-21T11:01:17;58.34;35.60;70.86;;
58251;Laerm;51449;51.676;5.812;2023-08-21T11:03:40;63.62;34.97;74.56;;
58251;Laerm;51449;51.676;5.812;2023-08-21T11:06:07;61.85;35.79;71.93;;
58251;Laerm;51449;51.676;5.812;2023-08-21T11:08:31;62.14;36.25;73.15;;
58251;Laerm;51449;51.676;5.812;2023-08-21T11:10:54;62.17;42.83;73.02;;
58251;Laerm;51449;51.676;5.812;2023-08-21T11:13:16;62.28;44.15;71.05;;
58251;Laerm;51449;51.676;5.812;2023-08-21T11:15:37;64.40;48.21;74.40;;
58251;Laerm;51449;51.676;5.812;2023-08-21T11:18:01;64.20;38.47;73.87;;
58251;Laerm;51449;51.676;5.812;2023-08-21T11:20:31;64.32;38.38;78.12;;
58251;Laerm;51449;51.676;5.812;2023-08-21T11:23:01;62.85;44.65;72.33;;
58251;Laerm;51449;51.676;5.812;2023-08-21T11:25:30;63.90;44.70;73.55;;
58251;Laerm;51449;51.676;5.812;2023-08-21T11:27:53;66.40;44.84;78.31;;
58251;Laerm;51449;51.676;5.812;2023-08-21T11:30:15;66.84;57.76;75.91;;
58251;Laerm;51449;51.676;5.812;2023-08-21T11:32:37;63.41;53.90;71.75;;
58251;Laerm;51449;51.676;5.812;2023-08-21T11:35:03;63.80;46.22;71.97;;
58251;Laerm;51449;51.676;5.812;2023-08-21T11:37:26;68.17;49.98;83.07;;
58251;Laerm;51449;51.676;5.812;2023-08-21T11:39:56;61.92;42.24;72.62;;
58251;Laerm;51449;51.676;5.812;2023-08-21T11:42:21;65.90;52.80;76.03;;
58251;Laerm;51449;51.676;5.812;2023-08-21T11:44:51;62.95;38.08;74.59;;
58251;Laerm;51449;51.676;5.812;2023-08-21T11:47:16;66.08;54.92;77.58;;
58251;Laerm;51449;51.676;5.812;2023-08-21T11:49:41;64.95;48.05;77.62;;
58251;Laerm;51449;51.676;5.812;2023-08-21T11:52:06;63.94;43.18;75.28;;
58251;Laerm;51449;51.676;5.812;2023-08-21T11:54:36;66.07;37.86;75.97;;
58251;Laerm;51449;51.676;5.812;2023-08-21T11:56:58;67.74;42.09;81.31;;
58251;Laerm;51449;51.676;5.812;2023-08-21T11:59:23;58.02;36.51;70.24;;
58251;Laerm;51449;51.676;5.812;2023-08-21T12:01:50;62.48;37.83;76.86;;
58251;Laerm;51449;51.676;5.812;2023-08-21T12:04:16;64.69;35.59;72.12;;
58251;Laerm;51449;51.676;5.812;2023-08-21T12:06:44;62.88;39.72;71.98;;
58251;Laerm;51449;51.676;5.812;2023-08-21T12:09:06;65.29;45.29;74.90;;
58251;Laerm;51449;51.676;5.812;2023-08-21T12:11:28;63.92;43.58;75.89;;
58251;Laerm;51449;51.676;5.812;2023-08-21T12:13:50;62.68;40.64;72.24;;
58251;Laerm;51449;51.676;5.812;2023-08-21T12:16:13;60.64;35.86;70.65;;
58251;Laerm;51449;51.676;5.812;2023-08-21T12:18:35;61.50;37.53;71.53;;
58251;Laerm;51449;51.676;5.812;2023-08-21T12:20:57;62.18;43.08;73.35;;
58251;Laerm;51449;51.676;5.812;2023-08-21T12:23:18;63.55;40.14;73.25;;
58251;Laerm;51449;51.676;5.812;2023-08-21T12:25:40;64.30;46.58;73.48;;
58251;Laerm;51449;51.676;5.812;2023-08-21T12:28:04;60.90;42.06;72.10;;
58251;Laerm;51449;51.676;5.812;2023-08-21T12:30:30;65.91;53.07;75.12;;
58251;Laerm;51449;51.676;5.812;2023-08-21T12:32:52;63.08;44.13;72.70;;
58251;Laerm;51449;51.676;5.812;2023-08-21T12:35:14;62.97;43.09;73.57;;
58251;Laerm;51449;51.676;5.812;2023-08-21T12:37:36;63.44;40.33;75.93;;
58251;Laerm;51449;51.676;5.812;2023-08-21T12:39:59;61.38;36.56;72.46;;
58251;Laerm;51449;51.676;5.812;2023-08-21T12:42:20;64.24;46.06;72.82;;
58251;Laerm;51449;51.676;5.812;2023-08-21T12:44:42;65.40;41.26;74.50;;
58251;Laerm;51449;51.676;5.812;2023-08-21T12:47:04;65.15;43.45;72.86;;
58251;Laerm;51449;51.676;5.812;2023-08-21T12:49:26;64.33;44.40;73.39;;
58251;Laerm;51449;51.676;5.812;2023-08-21T12:51:47;64.05;41.16;73.69;;
58251;Laerm;51449;51.676;5.812;2023-08-21T12:54:09;64.12;39.93;72.45;;
58251;Laerm;51449;51.676;5.812;2023-08-21T12:56:31;61.04;39.50;71.58;;
58251;Laerm;51449;51.676;5.812;2023-08-21T12:58:53;66.12;43.72;75.53;;
58251;Laerm;51449;51.676;5.812;2023-08-21T13:01:15;64.26;44.39;75.16;;
58251;Laerm;51449;51.676;5.812;2023-08-21T13:03:36;65.00;40.84;76.62;;
58251;Laerm;51449;51.676;5.812;2023-08-21T13:05:58;62.95;40.78;76.85;;
58251;Laerm;51449;51.676;5.812;2023-08-21T13:08:21;67.24;42.71;82.13;;
58251;Laerm;51449;51.676;5.812;2023-08-21T13:10:43;64.95;40.57;78.22;;
58251;Laerm;51449;51.676;5.812;2023-08-21T13:13:05;63.17;38.28;72.23;;
58251;Laerm;51449;51.676;5.812;2023-08-21T13:15:26;63.24;38.27;73.71;;
58251;Laerm;51449;51.676;5.812;2023-08-21T13:17:48;63.97;34.56;72.35;;
58251;Laerm;51449;51.676;5.812;2023-08-21T13:20:10;61.94;39.93;70.95;;
58251;Laerm;51449;51.676;5.812;2023-08-21T13:22:51;63.89;43.32;75.57;;
58251;Laerm;51449;51.676;5.812;2023-08-21T13:25:13;64.15;47.44;73.91;;
58251;Laerm;51449;51.676;5.812;2023-08-21T13:27:35;65.43;42.99;78.11;;